Main page
METAR-TAF:

METAR-TAF

Airports :

Powell River Airport

Powell River, British Columbia, Canada

latitude: 49-50N, longitude: 124-30W, elevation: 426 ft

Current weather observation

The report was made 4 hours and 28 minutes ago, at 02:00 UTC
Wind 10 mph from the East/Southeast with gusts up to 20 mph, varying between East/Northeast and Southeast
Temperature 55°F
Humidity 72%
Pressure 30.01 in. Hg
Visibility: 20 miles
Few clouds at a height of 12000 ft
Overcast at a height of 22000 ft

METAR: CYPW 240200Z 11009G17KT 060V130 20SM FEW120 OVC220 13/08 A3001 RMK AC2CS6 HALO LAST STFD OBS/NXT 241300Z SLP165

Time: 23:28 (06:28 UTC)


TAF: missing

Weather observations and forecasts of more than 4000 airports (METAR and TAF reports).

The available stations are represented by yellow and red dots on the map.

Hover mouse over dot to see the name of the station.

Then click to see weather observations and forecasts.

To change the map : click on the green buttons with a black cross to zoom in, on the green button with a dash to zoom out, or on the green arrows for adjacent maps.


METAR-TAF: